sensor_id;sensor_type;location;lat;lon;timestamp;P1;durP1;ratioP1;P2;durP2;ratioP2
54745;SDS011;40640;48.130;11.356;2023-05-20T00:02:19;5.70;;;4.03;;
54745;SDS011;40640;48.130;11.356;2023-05-20T00:06:23;5.72;;;4.53;;
54745;SDS011;40640;48.130;11.356;2023-05-20T00:10:26;10.35;;;5.15;;
54745;SDS011;40640;48.130;11.356;2023-05-20T00:14:29;9.18;;;4.55;;
54745;SDS011;40640;48.130;11.356;2023-05-20T00:18:32;7.60;;;4.63;;
54745;SDS011;40640;48.130;11.356;2023-05-20T00:22:36;6.22;;;4.75;;
54745;SDS011;40640;48.130;11.356;2023-05-20T00:26:39;6.38;;;4.20;;
54745;SDS011;40640;48.130;11.356;2023-05-20T00:30:42;7.05;;;4.68;;
54745;SDS011;40640;48.130;11.356;2023-05-20T00:34:54;6.35;;;4.07;;
54745;SDS011;40640;48.130;11.356;2023-05-20T00:38:59;7.07;;;4.40;;
54745;SDS011;40640;48.130;11.356;2023-05-20T00:43:01;5.47;;;4.53;;
54745;SDS011;40640;48.130;11.356;2023-05-20T00:47:04;9.80;;;4.80;;
54745;SDS011;40640;48.130;11.356;2023-05-20T00:51:07;5.20;;;4.70;;
54745;SDS011;40640;48.130;11.356;2023-05-20T00:55:12;7.72;;;4.20;;
54745;SDS011;40640;48.130;11.356;2023-05-20T00:59:15;6.28;;;4.47;;
54745;SDS011;40640;48.130;11.356;2023-05-20T01:03:18;9.45;;;4.90;;
54745;SDS011;40640;48.130;11.356;2023-05-20T01:07:21;9.70;;;5.03;;
54745;SDS011;40640;48.130;11.356;2023-05-20T01:11:28;7.13;;;5.15;;
54745;SDS011;40640;48.130;11.356;2023-05-20T01:15:34;8.02;;;5.28;;
54745;SDS011;40640;48.130;11.356;2023-05-20T01:19:40;7.80;;;4.40;;
54745;SDS011;40640;48.130;11.356;2023-05-20T01:23:45;13.23;;;5.13;;
54745;SDS011;40640;48.130;11.356;2023-05-20T01:27:49;8.85;;;4.93;;
54745;SDS011;40640;48.130;11.356;2023-05-20T01:31:54;7.60;;;5.20;;
54745;SDS011;40640;48.130;11.356;2023-05-20T01:35:59;7.60;;;4.88;;
54745;SDS011;40640;48.130;11.356;2023-05-20T01:40:05;7.30;;;5.00;;
54745;SDS011;40640;48.130;11.356;2023-05-20T01:44:09;7.03;;;5.30;;
54745;SDS011;40640;48.130;11.356;2023-05-20T01:48:13;6.93;;;5.40;;
54745;SDS011;40640;48.130;11.356;2023-05-20T01:52:17;7.85;;;5.13;;
54745;SDS011;40640;48.130;11.356;2023-05-20T01:56:21;7.55;;;5.05;;
54745;SDS011;40640;48.130;11.356;2023-05-20T02:00:24;7.72;;;6.03;;
54745;SDS011;40640;48.130;11.356;2023-05-20T02:04:28;8.68;;;4.88;;
54745;SDS011;40640;48.130;11.356;2023-05-20T02:08:31;8.43;;;5.97;;
54745;SDS011;40640;48.130;11.356;2023-05-20T02:12:35;9.43;;;5.88;;
54745;SDS011;40640;48.130;11.356;2023-05-20T02:16:38;8.48;;;5.57;;
54745;SDS011;40640;48.130;11.356;2023-05-20T02:20:41;10.25;;;6.28;;
54745;SDS011;40640;48.130;11.356;2023-05-20T02:24:44;12.88;;;6.05;;
54745;SDS011;40640;48.130;11.356;2023-05-20T02:28:50;10.05;;;6.20;;
54745;SDS011;40640;48.130;11.356;2023-05-20T02:32:55;8.73;;;6.40;;
54745;SDS011;40640;48.130;11.356;2023-05-20T02:36:58;16.17;;;6.53;;
54745;SDS011;40640;48.130;11.356;2023-05-20T02:41:02;10.77;;;6.00;;
54745;SDS011;40640;48.130;11.356;2023-05-20T02:45:07;9.23;;;6.60;;
54745;SDS011;40640;48.130;11.356;2023-05-20T02:49:12;8.35;;;6.15;;
54745;SDS011;40640;48.130;11.356;2023-05-20T02:53:15;10.70;;;6.47;;
54745;SDS011;40640;48.130;11.356;2023-05-20T02:57:18;10.88;;;7.10;;
54745;SDS011;40640;48.130;11.356;2023-05-20T03:01:22;10.25;;;6.65;;
54745;SDS011;40640;48.130;11.356;2023-05-20T03:05:26;13.25;;;6.60;;
54745;SDS011;40640;48.130;11.356;2023-05-20T03:09:29;7.82;;;6.75;;
54745;SDS011;40640;48.130;11.356;2023-05-20T03:13:33;9.85;;;7.07;;
54745;SDS011;40640;48.130;11.356;2023-05-20T03:17:37;13.32;;;6.65;;
54745;SDS011;40640;48.130;11.356;2023-05-20T03:21:41;9.48;;;7.07;;
54745;SDS011;40640;48.130;11.356;2023-05-20T03:25:44;10.02;;;7.60;;
54745;SDS011;40640;48.130;11.356;2023-05-20T03:29:47;11.88;;;7.80;;
54745;SDS011;40640;48.130;11.356;2023-05-20T03:33:53;12.93;;;7.47;;
54745;SDS011;40640;48.130;11.356;2023-05-20T03:37:56;10.13;;;7.75;;
54745;SDS011;40640;48.130;11.356;2023-05-20T03:42:02;12.95;;;7.55;;
54745;SDS011;40640;48.130;11.356;2023-05-20T03:46:05;11.32;;;7.88;;
54745;SDS011;40640;48.130;11.356;2023-05-20T03:50:11;11.07;;;7.95;;
54745;SDS011;40640;48.130;11.356;2023-05-20T03:54:14;12.63;;;8.43;;
54745;SDS011;40640;48.130;11.356;2023-05-20T03:58:22;9.95;;;7.90;;
54745;SDS011;40640;48.130;11.356;2023-05-20T04:02:25;17.00;;;8.15;;
54745;SDS011;40640;48.130;11.356;2023-05-20T04:06:30;14.18;;;8.48;;
54745;SDS011;40640;48.130;11.356;2023-05-20T04:10:34;13.87;;;7.90;;
54745;SDS011;40640;48.130;11.356;2023-05-20T04:14:38;12.70;;;8.93;;
54745;SDS011;40640;48.130;11.356;2023-05-20T04:18:42;14.60;;;8.45;;
54745;SDS011;40640;48.130;11.356;2023-05-20T04:22:48;15.07;;;9.23;;
54745;SDS011;40640;48.130;11.356;2023-05-20T04:26:51;14.93;;;9.27;;
54745;SDS011;40640;48.130;11.356;2023-05-20T04:30:57;23.80;;;10.40;;
54745;SDS011;40640;48.130;11.356;2023-05-20T04:35:00;21.50;;;12.23;;
54745;SDS011;40640;48.130;11.356;2023-05-20T04:39:08;23.00;;;12.27;;
54745;SDS011;40640;48.130;11.356;2023-05-20T04:43:11;23.05;;;12.55;;
54745;SDS011;40640;48.130;11.356;2023-05-20T04:47:15;24.42;;;13.32;;
54745;SDS011;40640;48.130;11.356;2023-05-20T04:51:18;30.48;;;12.95;;
54745;SDS011;40640;48.130;11.356;2023-05-20T04:55:22;24.35;;;12.50;;
54745;SDS011;40640;48.130;11.356;2023-05-20T05:03:31;19.75;;;12.73;;
54745;SDS011;40640;48.130;11.356;2023-05-20T05:07:36;20.35;;;13.55;;
54745;SDS011;40640;48.130;11.356;2023-05-20T05:11:41;27.33;;;14.13;;
54745;SDS011;40640;48.130;11.356;2023-05-20T05:15:44;25.88;;;15.48;;
54745;SDS011;40640;48.130;11.356;2023-05-20T05:19:47;28.50;;;15.02;;
54745;SDS011;40640;48.130;11.356;2023-05-20T05:23:51;22.65;;;14.50;;
54745;SDS011;40640;48.130;11.356;2023-05-20T05:27:57;26.60;;;14.77;;
54745;SDS011;40640;48.130;11.356;2023-05-20T05:32:00;24.05;;;15.55;;
54745;SDS011;40640;48.130;11.356;2023-05-20T05:36:03;25.08;;;15.90;;
54745;SDS011;40640;48.130;11.356;2023-05-20T05:40:07;25.50;;;14.38;;
54745;SDS011;40640;48.130;11.356;2023-05-20T05:44:12;29.80;;;15.02;;
54745;SDS011;40640;48.130;11.356;2023-05-20T05:48:15;20.10;;;13.88;;
54745;SDS011;40640;48.130;11.356;2023-05-20T05:52:18;22.05;;;14.15;;
54745;SDS011;40640;48.130;11.356;2023-05-20T05:56:22;23.50;;;13.55;;
54745;SDS011;40640;48.130;11.356;2023-05-20T06:00:26;22.80;;;13.88;;
54745;SDS011;40640;48.130;11.356;2023-05-20T06:04:29;22.73;;;13.35;;
54745;SDS011;40640;48.130;11.356;2023-05-20T06:08:32;25.75;;;13.38;;
54745;SDS011;40640;48.130;11.356;2023-05-20T06:12:35;22.98;;;13.30;;
54745;SDS011;40640;48.130;11.356;2023-05-20T06:16:39;23.42;;;14.07;;
54745;SDS011;40640;48.130;11.356;2023-05-20T06:20:42;28.08;;;13.93;;
54745;SDS011;40640;48.130;11.356;2023-05-20T06:24:46;25.92;;;13.57;;
54745;SDS011;40640;48.130;11.356;2023-05-20T06:28:49;22.63;;;12.60;;
54745;SDS011;40640;48.130;11.356;2023-05-20T06:32:53;25.73;;;13.55;;
54745;SDS011;40640;48.130;11.356;2023-05-20T06:36:56;21.27;;;12.27;;
54745;SDS011;40640;48.130;11.356;2023-05-20T06:40:59;17.92;;;11.82;;
54745;SDS011;40640;48.130;11.356;2023-05-20T06:45:03;16.88;;;11.65;;
54745;SDS011;40640;48.130;11.356;2023-05-20T06:49:12;22.08;;;12.07;;
54745;SDS011;40640;48.130;11.356;2023-05-20T06:53:15;19.05;;;12.85;;
54745;SDS011;40640;48.130;11.356;2023-05-20T06:57:18;21.70;;;12.18;;
54745;SDS011;40640;48.130;11.356;2023-05-20T07:01:22;17.58;;;11.38;;
54745;SDS011;40640;48.130;11.356;2023-05-20T07:05:26;18.40;;;11.63;;
54745;SDS011;40640;48.130;11.356;2023-05-20T07:09:30;21.35;;;12.88;;
54745;SDS011;40640;48.130;11.356;2023-05-20T07:13:33;20.73;;;11.98;;
54745;SDS011;40640;48.130;11.356;2023-05-20T07:17:36;23.20;;;12.35;;
54745;SDS011;40640;48.130;11.356;2023-05-20T07:21:40;15.20;;;10.77;;
54745;SDS011;40640;48.130;11.356;2023-05-20T07:26:01;17.95;;;11.68;;
54745;SDS011;40640;48.130;11.356;2023-05-20T07:30:05;15.18;;;10.40;;
54745;SDS011;40640;48.130;11.356;2023-05-20T07:34:10;18.90;;;11.75;;
54745;SDS011;40640;48.130;11.356;2023-05-20T07:38:15;16.10;;;10.55;;
54745;SDS011;40640;48.130;11.356;2023-05-20T07:42:23;13.48;;;10.25;;
54745;SDS011;40640;48.130;11.356;2023-05-20T07:46:33;17.77;;;10.15;;
54745;SDS011;40640;48.130;11.356;2023-05-20T07:50:37;15.02;;;9.95;;
54745;SDS011;40640;48.130;11.356;2023-05-20T07:54:43;15.55;;;10.25;;
54745;SDS011;40640;48.130;11.356;2023-05-20T07:58:51;17.60;;;10.23;;
54745;SDS011;40640;48.130;11.356;2023-05-20T08:02:55;16.23;;;10.27;;
54745;SDS011;40640;48.130;11.356;2023-05-20T08:07:05;15.43;;;10.10;;
54745;SDS011;40640;48.130;11.356;2023-05-20T08:11:20;17.80;;;10.73;;
54745;SDS011;40640;48.130;11.356;2023-05-20T08:15:23;16.55;;;10.70;;
54745;SDS011;40640;48.130;11.356;2023-05-20T08:19:26;18.55;;;10.65;;
54745;SDS011;40640;48.130;11.356;2023-05-20T08:23:29;11.93;;;9.38;;
54745;SDS011;40640;48.130;11.356;2023-05-20T08:27:39;15.73;;;10.00;;
54745;SDS011;40640;48.130;11.356;2023-05-20T08:31:43;17.08;;;9.80;;
54745;SDS011;40640;48.130;11.356;2023-05-20T08:35:47;12.82;;;9.95;;
54745;SDS011;40640;48.130;11.356;2023-05-20T08:39:50;12.80;;;9.65;;
54745;SDS011;40640;48.130;11.356;2023-05-20T08:43:54;13.38;;;9.77;;
54745;SDS011;40640;48.130;11.356;2023-05-20T08:48:00;12.25;;;9.75;;
54745;SDS011;40640;48.130;11.356;2023-05-20T08:52:05;13.25;;;9.57;;
54745;SDS011;40640;48.130;11.356;2023-05-20T08:56:10;12.05;;;9.40;;
54745;SDS011;40640;48.130;11.356;2023-05-20T09:00:16;11.10;;;8.57;;
54745;SDS011;40640;48.130;11.356;2023-05-20T09:04:20;12.07;;;9.13;;
54745;SDS011;40640;48.130;11.356;2023-05-20T09:08:23;13.23;;;8.55;;
54745;SDS011;40640;48.130;11.356;2023-05-20T09:12:27;11.73;;;7.50;;
54745;SDS011;40640;48.130;11.356;2023-05-20T09:16:31;9.55;;;6.95;;
54745;SDS011;40640;48.130;11.356;2023-05-20T09:20:35;11.00;;;7.05;;
54745;SDS011;40640;48.130;11.356;2023-05-20T09:24:39;9.32;;;6.88;;
54745;SDS011;40640;48.130;11.356;2023-05-20T09:28:42;9.23;;;7.10;;
54745;SDS011;40640;48.130;11.356;2023-05-20T09:32:52;9.70;;;7.00;;
54745;SDS011;40640;48.130;11.356;2023-05-20T09:36:56;9.02;;;6.03;;
54745;SDS011;40640;48.130;11.356;2023-05-20T09:41:01;10.20;;;6.15;;
54745;SDS011;40640;48.130;11.356;2023-05-20T09:45:08;9.98;;;5.43;;
54745;SDS011;40640;48.130;11.356;2023-05-20T09:49:12;8.25;;;5.40;;
54745;SDS011;40640;48.130;11.356;2023-05-20T09:53:16;8.93;;;5.70;;
54745;SDS011;40640;48.130;11.356;2023-05-20T09:57:19;8.48;;;6.40;;
54745;SDS011;40640;48.130;11.356;2023-05-20T10:01:22;6.05;;;5.13;;
54745;SDS011;40640;48.130;11.356;2023-05-20T10:05:27;6.93;;;5.05;;
54745;SDS011;40640;48.130;11.356;2023-05-20T10:09:36;6.40;;;4.47;;
54745;SDS011;40640;48.130;11.356;2023-05-20T10:14:05;5.72;;;4.80;;
54745;SDS011;40640;48.130;11.356;2023-05-20T10:18:22;5.95;;;4.75;;
54745;SDS011;40640;48.130;11.356;2023-05-20T10:22:35;5.10;;;4.40;;
54745;SDS011;40640;48.130;11.356;2023-05-20T10:26:38;7.18;;;4.22;;
54745;SDS011;40640;48.130;11.356;2023-05-20T10:30:48;6.13;;;4.03;;
54745;SDS011;40640;48.130;11.356;2023-05-20T10:34:51;4.03;;;3.60;;
54745;SDS011;40640;48.130;11.356;2023-05-20T10:38:57;4.95;;;3.75;;
54745;SDS011;40640;48.130;11.356;2023-05-20T10:43:07;5.57;;;3.47;;
54745;SDS011;40640;48.130;11.356;2023-05-20T10:47:11;7.43;;;3.78;;
54745;SDS011;40640;48.130;11.356;2023-05-20T10:51:17;4.95;;;3.45;;
54745;SDS011;40640;48.130;11.356;2023-05-20T10:55:23;4.80;;;3.80;;
54745;SDS011;40640;48.130;11.356;2023-05-20T10:59:26;8.27;;;3.53;;
54745;SDS011;40640;48.130;11.356;2023-05-20T11:03:29;4.60;;;3.90;;
54745;SDS011;40640;48.130;11.356;2023-05-20T11:07:32;6.10;;;3.75;;
54745;SDS011;40640;48.130;11.356;2023-05-20T11:11:36;4.32;;;3.53;;
54745;SDS011;40640;48.130;11.356;2023-05-20T11:15:40;5.93;;;3.40;;
54745;SDS011;40640;48.130;11.356;2023-05-20T11:19:43;4.57;;;3.58;;
54745;SDS011;40640;48.130;11.356;2023-05-20T11:23:50;5.55;;;3.30;;
54745;SDS011;40640;48.130;11.356;2023-05-20T11:27:54;4.28;;;3.53;;
54745;SDS011;40640;48.130;11.356;2023-05-20T11:31:58;5.15;;;3.40;;
54745;SDS011;40640;48.130;11.356;2023-05-20T11:36:01;3.83;;;3.23;;
54745;SDS011;40640;48.130;11.356;2023-05-20T11:40:13;4.43;;;2.90;;
54745;SDS011;40640;48.130;11.356;2023-05-20T11:44:17;2.42;;;2.10;;
54745;SDS011;40640;48.130;11.356;2023-05-20T11:48:22;3.78;;;2.55;;
54745;SDS011;40640;48.130;11.356;2023-05-20T11:52:27;3.95;;;2.80;;
54745;SDS011;40640;48.130;11.356;2023-05-20T11:56:30;2.30;;;2.10;;
54745;SDS011;40640;48.130;11.356;2023-05-20T12:00:38;3.15;;;2.15;;
54745;SDS011;40640;48.130;11.356;2023-05-20T12:04:55;2.63;;;2.42;;
54745;SDS011;40640;48.130;11.356;2023-05-20T12:13:01;2.67;;;2.10;;
54745;SDS011;40640;48.130;11.356;2023-05-20T12:17:05;4.15;;;2.60;;
54745;SDS011;40640;48.130;11.356;2023-05-20T12:21:08;2.90;;;2.60;;
54745;SDS011;40640;48.130;11.356;2023-05-20T12:25:12;3.83;;;2.78;;
54745;SDS011;40640;48.130;11.356;2023-05-20T12:29:16;3.97;;;2.40;;
54745;SDS011;40640;48.130;11.356;2023-05-20T12:33:20;3.22;;;2.72;;
54745;SDS011;40640;48.130;11.356;2023-05-20T12:37:23;4.72;;;2.70;;
54745;SDS011;40640;48.130;11.356;2023-05-20T12:41:26;3.13;;;2.83;;
54745;SDS011;40640;48.130;11.356;2023-05-20T12:45:29;3.00;;;2.70;;
54745;SDS011;40640;48.130;11.356;2023-05-20T12:49:33;5.10;;;2.70;;
54745;SDS011;40640;48.130;11.356;2023-05-20T12:53:36;3.42;;;2.80;;
54745;SDS011;40640;48.130;11.356;2023-05-20T12:57:39;3.42;;;2.45;;
54745;SDS011;40640;48.130;11.356;2023-05-20T13:01:42;4.40;;;3.03;;
54745;SDS011;40640;48.130;11.356;2023-05-20T13:05:46;3.17;;;2.90;;
54745;SDS011;40640;48.130;11.356;2023-05-20T13:09:49;3.88;;;3.10;;
54745;SDS011;40640;48.130;11.356;2023-05-20T13:13:53;5.00;;;3.47;;
54745;SDS011;40640;48.130;11.356;2023-05-20T13:17:56;7.40;;;3.80;;
54745;SDS011;40640;48.130;11.356;2023-05-20T13:22:03;7.47;;;3.80;;
54745;SDS011;40640;48.130;11.356;2023-05-20T13:26:07;5.68;;;4.20;;
54745;SDS011;40640;48.130;11.356;2023-05-20T13:30:10;5.38;;;3.92;;
54745;SDS011;40640;48.130;11.356;2023-05-20T13:34:13;8.02;;;4.55;;
54745;SDS011;40640;48.130;11.356;2023-05-20T13:38:18;9.77;;;4.07;;
54745;SDS011;40640;48.130;11.356;2023-05-20T13:42:21;5.47;;;3.87;;
54745;SDS011;40640;48.130;11.356;2023-05-20T13:46:24;6.18;;;4.47;;
54745;SDS011;40640;48.130;11.356;2023-05-20T13:50:27;4.97;;;4.20;;
54745;SDS011;40640;48.130;11.356;2023-05-20T13:54:31;5.85;;;5.25;;
54745;SDS011;40640;48.130;11.356;2023-05-20T13:58:34;8.07;;;5.80;;
54745;SDS011;40640;48.130;11.356;2023-05-20T14:02:37;10.52;;;5.15;;
54745;SDS011;40640;48.130;11.356;2023-05-20T14:06:40;11.25;;;5.45;;
54745;SDS011;40640;48.130;11.356;2023-05-20T14:10:44;7.15;;;5.75;;
54745;SDS011;40640;48.130;11.356;2023-05-20T14:14:47;9.63;;;5.72;;
54745;SDS011;40640;48.130;11.356;2023-05-20T14:18:50;6.68;;;5.35;;
54745;SDS011;40640;48.130;11.356;2023-05-20T14:22:53;8.00;;;5.18;;
54745;SDS011;40640;48.130;11.356;2023-05-20T14:26:57;8.13;;;5.90;;
54745;SDS011;40640;48.130;11.356;2023-05-20T14:31:00;10.30;;;5.70;;
54745;SDS011;40640;48.130;11.356;2023-05-20T14:35:03;6.70;;;5.20;;
54745;SDS011;40640;48.130;11.356;2023-05-20T14:39:07;8.45;;;6.80;;
54745;SDS011;40640;48.130;11.356;2023-05-20T14:43:11;12.95;;;6.90;;
54745;SDS011;40640;48.130;11.356;2023-05-20T14:47:14;9.85;;;5.95;;
54745;SDS011;40640;48.130;11.356;2023-05-20T14:51:19;8.00;;;6.50;;
54745;SDS011;40640;48.130;11.356;2023-05-20T14:55:22;10.27;;;7.07;;
54745;SDS011;40640;48.130;11.356;2023-05-20T14:59:26;12.80;;;6.80;;
54745;SDS011;40640;48.130;11.356;2023-05-20T15:03:29;9.25;;;6.45;;
54745;SDS011;40640;48.130;11.356;2023-05-20T15:07:32;10.82;;;7.18;;
54745;SDS011;40640;48.130;11.356;2023-05-20T15:11:35;10.98;;;7.20;;
54745;SDS011;40640;48.130;11.356;2023-05-20T15:15:39;7.65;;;6.60;;
54745;SDS011;40640;48.130;11.356;2023-05-20T15:19:42;10.07;;;7.20;;
54745;SDS011;40640;48.130;11.356;2023-05-20T15:23:45;9.90;;;6.30;;
54745;SDS011;40640;48.130;11.356;2023-05-20T15:27:48;10.52;;;7.10;;
54745;SDS011;40640;48.130;11.356;2023-05-20T15:31:52;10.85;;;7.28;;
54745;SDS011;40640;48.130;11.356;2023-05-20T15:35:55;9.20;;;6.97;;
54745;SDS011;40640;48.130;11.356;2023-05-20T15:39:58;8.82;;;7.22;;
54745;SDS011;40640;48.130;11.356;2023-05-20T15:44:01;10.18;;;7.25;;
54745;SDS011;40640;48.130;11.356;2023-05-20T15:48:05;9.77;;;7.07;;
54745;SDS011;40640;48.130;11.356;2023-05-20T15:52:08;10.18;;;7.60;;
54745;SDS011;40640;48.130;11.356;2023-05-20T15:56:11;11.88;;;7.03;;
54745;SDS011;40640;48.130;11.356;2023-05-20T16:00:14;10.70;;;7.03;;
54745;SDS011;40640;48.130;11.356;2023-05-20T16:04:21;11.32;;;6.68;;
54745;SDS011;40640;48.130;11.356;2023-05-20T16:08:25;14.27;;;7.05;;
54745;SDS011;40640;48.130;11.356;2023-05-20T16:12:29;11.73;;;6.60;;
54745;SDS011;40640;48.130;11.356;2023-05-20T16:16:32;10.02;;;7.47;;
54745;SDS011;40640;48.130;11.356;2023-05-20T16:20:38;9.68;;;6.65;;
54745;SDS011;40640;48.130;11.356;2023-05-20T16:24:40;8.23;;;6.40;;
54745;SDS011;40640;48.130;11.356;2023-05-20T16:28:43;12.98;;;7.53;;
54745;SDS011;40640;48.130;11.356;2023-05-20T16:32:47;9.80;;;6.97;;
54745;SDS011;40640;48.130;11.356;2023-05-20T16:36:51;12.80;;;7.78;;
54745;SDS011;40640;48.130;11.356;2023-05-20T16:40:54;10.45;;;6.80;;
54745;SDS011;40640;48.130;11.356;2023-05-20T16:44:57;12.10;;;6.75;;
54745;SDS011;40640;48.130;11.356;2023-05-20T16:49:00;9.98;;;6.50;;
54745;SDS011;40640;48.130;11.356;2023-05-20T16:53:04;12.13;;;7.53;;
54745;SDS011;40640;48.130;11.356;2023-05-20T16:57:07;10.50;;;6.25;;
54745;SDS011;40640;48.130;11.356;2023-05-20T17:01:12;8.85;;;7.00;;
54745;SDS011;40640;48.130;11.356;2023-05-20T17:05:15;10.95;;;6.60;;
54745;SDS011;40640;48.130;11.356;2023-05-20T17:09:20;15.63;;;7.05;;
54745;SDS011;40640;48.130;11.356;2023-05-20T17:13:22;15.77;;;7.05;;
54745;SDS011;40640;48.130;11.356;2023-05-20T17:17:25;12.43;;;6.90;;
54745;SDS011;40640;48.130;11.356;2023-05-20T17:21:28;11.70;;;7.25;;
54745;SDS011;40640;48.130;11.356;2023-05-20T17:25:33;12.30;;;7.40;;
54745;SDS011;40640;48.130;11.356;2023-05-20T17:29:36;9.65;;;7.10;;
54745;SDS011;40640;48.130;11.356;2023-05-20T17:33:38;11.05;;;8.23;;
54745;SDS011;40640;48.130;11.356;2023-05-20T17:37:41;11.75;;;7.75;;
54745;SDS011;40640;48.130;11.356;2023-05-20T17:41:46;10.40;;;7.82;;
54745;SDS011;40640;48.130;11.356;2023-05-20T17:45:49;10.63;;;7.35;;
54745;SDS011;40640;48.130;11.356;2023-05-20T17:49:51;18.50;;;7.57;;
54745;SDS011;40640;48.130;11.356;2023-05-20T17:53:54;10.73;;;7.80;;
54745;SDS011;40640;48.130;11.356;2023-05-20T17:57:58;13.80;;;7.38;;
54745;SDS011;40640;48.130;11.356;2023-05-20T18:02:02;14.88;;;7.10;;
54745;SDS011;40640;48.130;11.356;2023-05-20T18:06:06;11.00;;;7.50;;
54745;SDS011;40640;48.130;11.356;2023-05-20T18:10:09;9.35;;;7.05;;
54745;SDS011;40640;48.130;11.356;2023-05-20T18:14:14;15.07;;;7.63;;
54745;SDS011;40640;48.130;11.356;2023-05-20T18:18:18;13.38;;;7.90;;
54745;SDS011;40640;48.130;11.356;2023-05-20T18:22:21;11.70;;;7.60;;
54745;SDS011;40640;48.130;11.356;2023-05-20T18:26:24;9.95;;;7.22;;
54745;SDS011;40640;48.130;11.356;2023-05-20T18:30:29;11.15;;;7.90;;
54745;SDS011;40640;48.130;11.356;2023-05-20T18:34:32;15.80;;;7.95;;
54745;SDS011;40640;48.130;11.356;2023-05-20T18:38:35;13.07;;;8.10;;
54745;SDS011;40640;48.130;11.356;2023-05-20T18:42:41;11.38;;;7.80;;
54745;SDS011;40640;48.130;11.356;2023-05-20T18:46:46;11.75;;;8.52;;
54745;SDS011;40640;48.130;11.356;2023-05-20T18:50:49;12.27;;;8.02;;
54745;SDS011;40640;48.130;11.356;2023-05-20T18:54:51;11.10;;;7.78;;
54745;SDS011;40640;48.130;11.356;2023-05-20T18:58:54;11.65;;;8.77;;
54745;SDS011;40640;48.130;11.356;2023-05-20T19:02:58;11.93;;;8.00;;
54745;SDS011;40640;48.130;11.356;2023-05-20T19:07:01;11.43;;;7.90;;
54745;SDS011;40640;48.130;11.356;2023-05-20T19:11:04;13.07;;;8.32;;
54745;SDS011;40640;48.130;11.356;2023-05-20T19:15:08;17.77;;;9.10;;
54745;SDS011;40640;48.130;11.356;2023-05-20T19:19:12;14.27;;;8.55;;
54745;SDS011;40640;48.130;11.356;2023-05-20T19:23:15;16.20;;;8.60;;
54745;SDS011;40640;48.130;11.356;2023-05-20T19:27:18;14.15;;;8.57;;
54745;SDS011;40640;48.130;11.356;2023-05-20T19:31:21;17.48;;;8.88;;
54745;SDS011;40640;48.130;11.356;2023-05-20T19:35:26;14.10;;;8.80;;
54745;SDS011;40640;48.130;11.356;2023-05-20T19:39:28;16.42;;;9.25;;
54745;SDS011;40640;48.130;11.356;2023-05-20T19:43:31;13.23;;;9.20;;
54745;SDS011;40640;48.130;11.356;2023-05-20T19:47:34;16.58;;;9.65;;
54745;SDS011;40640;48.130;11.356;2023-05-20T19:51:39;12.13;;;9.32;;
54745;SDS011;40640;48.130;11.356;2023-05-20T19:55:42;12.98;;;9.45;;
54745;SDS011;40640;48.130;11.356;2023-05-20T19:59:45;13.13;;;9.38;;
54745;SDS011;40640;48.130;11.356;2023-05-20T20:03:48;13.75;;;8.75;;
54745;SDS011;40640;48.130;11.356;2023-05-20T20:07:53;12.90;;;9.07;;
54745;SDS011;40640;48.130;11.356;2023-05-20T20:11:56;15.40;;;10.05;;
54745;SDS011;40640;48.130;11.356;2023-05-20T20:15:59;13.73;;;10.00;;
54745;SDS011;40640;48.130;11.356;2023-05-20T20:20:02;15.57;;;9.10;;
54745;SDS011;40640;48.130;11.356;2023-05-20T20:24:11;15.05;;;9.45;;
54745;SDS011;40640;48.130;11.356;2023-05-20T20:28:15;15.00;;;9.90;;
54745;SDS011;40640;48.130;11.356;2023-05-20T20:32:18;14.30;;;9.43;;
54745;SDS011;40640;48.130;11.356;2023-05-20T20:36:21;13.52;;;10.18;;
54745;SDS011;40640;48.130;11.356;2023-05-20T20:40:26;13.90;;;8.90;;
54745;SDS011;40640;48.130;11.356;2023-05-20T20:44:29;13.02;;;9.48;;
54745;SDS011;40640;48.130;11.356;2023-05-20T20:48:32;15.60;;;10.68;;
54745;SDS011;40640;48.130;11.356;2023-05-20T20:52:35;17.60;;;9.63;;
54745;SDS011;40640;48.130;11.356;2023-05-20T20:56:40;11.85;;;9.45;;
54745;SDS011;40640;48.130;11.356;2023-05-20T21:00:45;14.40;;;10.02;;
54745;SDS011;40640;48.130;11.356;2023-05-20T21:04:49;15.38;;;10.13;;
54745;SDS011;40640;48.130;11.356;2023-05-20T21:08:52;17.63;;;10.32;;
54745;SDS011;40640;48.130;11.356;2023-05-20T21:12:59;12.77;;;9.98;;
54745;SDS011;40640;48.130;11.356;2023-05-20T21:17:02;14.48;;;9.30;;
54745;SDS011;40640;48.130;11.356;2023-05-20T21:21:05;14.13;;;10.07;;
54745;SDS011;40640;48.130;11.356;2023-05-20T21:25:12;17.80;;;10.10;;
54745;SDS011;40640;48.130;11.356;2023-05-20T21:29:16;13.35;;;9.77;;
54745;SDS011;40640;48.130;11.356;2023-05-20T21:33:19;15.90;;;9.77;;
54745;SDS011;40640;48.130;11.356;2023-05-20T21:37:22;20.38;;;10.50;;
54745;SDS011;40640;48.130;11.356;2023-05-20T21:41:25;12.95;;;10.30;;
54745;SDS011;40640;48.130;11.356;2023-05-20T21:45:29;14.45;;;10.13;;
54745;SDS011;40640;48.130;11.356;2023-05-20T21:49:32;14.57;;;9.95;;
54745;SDS011;40640;48.130;11.356;2023-05-20T21:53:35;15.93;;;9.82;;
54745;SDS011;40640;48.130;11.356;2023-05-20T21:57:37;18.80;;;10.60;;
54745;SDS011;40640;48.130;11.356;2023-05-20T22:01:41;18.08;;;10.32;;
54745;SDS011;40640;48.130;11.356;2023-05-20T22:05:44;14.88;;;10.13;;
54745;SDS011;40640;48.130;11.356;2023-05-20T22:09:47;17.58;;;10.02;;
54745;SDS011;40640;48.130;11.356;2023-05-20T22:13:50;14.32;;;9.93;;
54745;SDS011;40640;48.130;11.356;2023-05-20T22:17:55;15.73;;;10.00;;
54745;SDS011;40640;48.130;11.356;2023-05-20T22:21:58;15.35;;;10.45;;
54745;SDS011;40640;48.130;11.356;2023-05-20T22:26:01;14.90;;;9.80;;
54745;SDS011;40640;48.130;11.356;2023-05-20T22:30:05;17.55;;;9.65;;
54745;SDS011;40640;48.130;11.356;2023-05-20T22:34:11;14.93;;;10.90;;
54745;SDS011;40640;48.130;11.356;2023-05-20T22:38:13;14.98;;;9.45;;
54745;SDS011;40640;48.130;11.356;2023-05-20T22:42:16;14.98;;;9.80;;
54745;SDS011;40640;48.130;11.356;2023-05-20T22:46:19;15.30;;;9.50;;
54745;SDS011;40640;48.130;11.356;2023-05-20T22:50:23;17.60;;;11.32;;
54745;SDS011;40640;48.130;11.356;2023-05-20T22:54:28;15.23;;;10.13;;
54745;SDS011;40640;48.130;11.356;2023-05-20T22:58:30;14.45;;;10.30;;
54745;SDS011;40640;48.130;11.356;2023-05-20T23:02:35;17.20;;;10.30;;
54745;SDS011;40640;48.130;11.356;2023-05-20T23:06:43;13.23;;;10.20;;
54745;SDS011;40640;48.130;11.356;2023-05-20T23:10:46;12.40;;;9.60;;
54745;SDS011;40640;48.130;11.356;2023-05-20T23:14:49;19.75;;;10.55;;
54745;SDS011;40640;48.130;11.356;2023-05-20T23:18:52;15.15;;;9.27;;
54745;SDS011;40640;48.130;11.356;2023-05-20T23:22:57;13.77;;;9.93;;
54745;SDS011;40640;48.130;11.356;2023-05-20T23:27:11;14.63;;;9.45;;
54745;SDS011;40640;48.130;11.356;2023-05-20T23:31:14;13.70;;;9.25;;
54745;SDS011;40640;48.130;11.356;2023-05-20T23:35:16;15.15;;;9.85;;
54745;SDS011;40640;48.130;11.356;2023-05-20T23:39:21;15.00;;;9.65;;
54745;SDS011;40640;48.130;11.356;2023-05-20T23:43:24;12.18;;;9.43;;
54745;SDS011;40640;48.130;11.356;2023-05-20T23:47:26;14.05;;;9.55;;
54745;SDS011;40640;48.130;11.356;2023-05-20T23:51:30;13.32;;;8.70;;
54745;SDS011;40640;48.130;11.356;2023-05-20T23:55:37;13.95;;;9.38;;
54745;SDS011;40640;48.130;11.356;2023-05-20T23:59:39;12.95;;;9.25;;
